createdAt,value
2017-09-25T00:00:07.527Z,67.88
2017-09-25T00:01:07.545Z,67.69
2017-09-25T00:02:07.243Z,68.07
2017-09-25T00:03:07.589Z,67.49
2017-09-25T00:04:07.605Z,67.65
2017-09-25T00:05:07.618Z,67.55
2017-09-25T00:06:07.314Z,67.65
2017-09-25T00:07:07.658Z,68.23
2017-09-25T00:08:07.673Z,68.13
2017-09-25T00:09:07.371Z,67.94
2017-09-25T00:10:07.388Z,67.55
2017-09-25T00:11:07.730Z,67.94
2017-09-25T00:12:07.421Z,67.84
2017-09-25T00:13:07.768Z,67.84
2017-09-25T00:14:07.790Z,67.55
2017-09-25T00:15:07.814Z,67.84
2017-09-25T00:16:07.820Z,67.84
2017-09-25T00:17:07.840Z,68.04
2017-09-25T00:18:07.857Z,67.94
2017-09-25T00:19:07.876Z,67.75
2017-09-25T00:20:07.896Z,67.94
2017-09-25T00:21:07.587Z,67.55
2017-09-25T00:22:07.608Z,68.32
2017-09-25T00:23:07.951Z,67.94
2017-09-25T00:24:07.968Z,67.84
2017-09-25T00:25:07.664Z,68.04
2017-09-25T00:26:08.006Z,67.84
2017-09-25T00:27:08.026Z,67.55
2017-09-25T00:28:07.716Z,68.04
2017-09-25T00:29:08.060Z,67.84
2017-09-25T00:30:07.757Z,68.13
2017-09-25T00:31:08.101Z,67.84
2017-09-25T00:32:07.790Z,68.04
2017-09-25T00:33:08.132Z,68.13
2017-09-25T00:34:08.154Z,68.13
2017-09-25T00:35:07.846Z,67.75
2017-09-25T00:36:08.188Z,67.94
2017-09-25T00:37:08.205Z,67.94
2017-09-25T00:38:08.237Z,67.84
2017-09-25T00:39:07.921Z,67.75
2017-09-25T00:40:08.259Z,68.41
2017-09-25T00:41:08.283Z,68.04
2017-09-25T00:42:08.295Z,68.32
2017-09-25T00:43:07.993Z,67.94
2017-09-25T00:44:08.334Z,67.94
2017-09-25T00:45:08.029Z,68.32
2017-09-25T00:46:08.049Z,68.04
2017-09-25T00:47:08.387Z,68.32
2017-09-25T00:48:08.081Z,67.94
2017-09-25T00:49:08.427Z,68.32
2017-09-25T00:50:16.032Z,67.65
2017-09-25T00:51:08.460Z,67.65
2017-09-25T00:52:08.486Z,67.94
2017-09-25T00:53:08.176Z,68.51
2017-09-25T00:54:08.546Z,68.51
2017-09-25T00:55:08.212Z,67.65
2017-09-25T00:56:08.230Z,67.65
2017-09-25T00:57:08.247Z,67.65
2017-09-25T00:58:08.594Z,68.61
2017-09-25T00:59:08.291Z,67.65
2017-09-25T01:00:08.629Z,67.75
2017-09-25T01:01:08.642Z,68.32
2017-09-25T01:02:08.705Z,68.7
2017-09-25T01:03:08.357Z,67.65
2017-09-25T01:04:08.752Z,67.84
2017-09-25T01:05:08.746Z,67.65
2017-09-25T01:06:08.412Z,67.65
2017-09-25T01:07:08.428Z,67.65
2017-09-25T01:08:08.446Z,67.65
2017-09-25T01:09:08.786Z,68.13
2017-09-25T01:10:08.811Z,67.75
2017-09-25T01:11:08.823Z,67.84
2017-09-25T01:12:08.846Z,68.8
2017-09-25T01:13:08.536Z,67.75
2017-09-25T01:14:08.879Z,67.65
2017-09-25T01:15:08.580Z,67.75
2017-09-25T01:16:08.595Z,67.94
2017-09-25T01:17:08.611Z,67.94
2017-09-25T01:18:08.631Z,67.75
2017-09-25T01:19:08.646Z,68.41
2017-09-25T01:20:08.688Z,68.51
2017-09-25T01:21:09.014Z,67.94
2017-09-25T01:22:08.700Z,68.04
2017-09-25T01:23:08.718Z,68.04
2017-09-25T01:24:08.738Z,68.04
2017-09-25T01:25:09.078Z,67.75
2017-09-25T01:26:08.773Z,67.75
2017-09-25T01:27:08.792Z,68.13
2017-09-25T01:28:08.810Z,68.23
2017-09-25T01:29:08.829Z,68.41
2017-09-25T01:30:08.846Z,68.13
2017-09-25T01:31:09.186Z,68.32
2017-09-25T01:32:09.202Z,68.32
2017-09-25T01:33:08.903Z,68.04
2017-09-25T01:34:08.917Z,68.61
2017-09-25T01:35:09.258Z,68.32
2017-09-25T01:36:08.952Z,68.51
2017-09-25T01:37:09.299Z,68.41
2017-09-25T01:38:09.313Z,68.13
2017-09-25T01:39:09.008Z,68.19
2017-09-25T01:40:09.346Z,68.23
2017-09-25T01:41:09.370Z,68.9
2017-09-25T01:42:09.385Z,68.13
2017-09-25T01:43:09.078Z,68.41
2017-09-25T01:44:09.104Z,68.32
2017-09-25T01:45:09.436Z,68.61
2017-09-25T01:46:09.133Z,68.29
2017-09-25T01:47:09.479Z,68.19
2017-09-25T01:48:09.491Z,68.41
2017-09-25T01:49:09.518Z,68.38
2017-09-25T01:50:09.205Z,68.51
2017-09-25T01:51:09.226Z,68.61
2017-09-25T01:52:09.242Z,68.57
2017-09-25T01:53:09.258Z,68.7
2017-09-25T01:54:09.278Z,68.57
2017-09-25T01:55:09.293Z,68.61
2017-09-25T01:56:09.638Z,68.67
2017-09-25T01:57:09.329Z,68.76
2017-09-25T01:58:09.347Z,68.48
2017-09-25T01:59:09.370Z,68.86
2017-09-25T02:00:09.707Z,68.86
2017-09-25T02:01:09.725Z,68.67
2017-09-25T02:02:09.744Z,68.86
2017-09-25T02:03:09.764Z,68.38
2017-09-25T02:04:09.777Z,68.67
2017-09-25T02:05:09.476Z,69.15
2017-09-25T02:06:09.852Z,69.24
2017-09-25T02:07:09.833Z,68.67
2017-09-25T02:08:09.857Z,68.61
2017-09-25T02:09:09.876Z,68.96
2017-09-25T02:10:09.886Z,69.24
2017-09-25T02:11:09.906Z,68.76
2017-09-25T02:12:09.601Z,68.76
2017-09-25T02:13:09.617Z,69.05
2017-09-25T02:14:09.959Z,69.24
2017-09-25T02:15:09.982Z,68.76
2017-09-25T02:16:09.997Z,68.96
2017-09-25T02:17:10.015Z,68.76
2017-09-25T02:18:09.712Z,69.05
2017-09-25T02:19:10.048Z,69.05
2017-09-25T02:20:10.067Z,68.86
2017-09-25T02:21:09.761Z,69.05
2017-09-25T02:22:10.103Z,68.86
2017-09-25T02:23:09.800Z,68.57
2017-09-25T02:24:10.135Z,68.67
2017-09-25T02:25:10.154Z,68.57
2017-09-25T02:26:09.852Z,68.67
2017-09-25T02:27:09.869Z,68.76
2017-09-25T02:28:10.209Z,68.86
2017-09-25T02:29:10.227Z,68.76
2017-09-25T02:30:10.251Z,68.8
2017-09-25T02:31:10.269Z,68.86
2017-09-25T02:32:09.958Z,68.76
2017-09-25T02:33:09.974Z,68.76
2017-09-25T02:34:10.315Z,68.67
2017-09-25T02:35:10.337Z,68.76
2017-09-25T02:36:10.033Z,68.38
2017-09-25T02:37:10.373Z,68.7
2017-09-25T02:38:10.389Z,68.38
2017-09-25T02:39:10.084Z,68.41
2017-09-25T02:40:10.424Z,69.43
2017-09-25T02:41:10.118Z,69.62
2017-09-25T02:42:10.462Z,68.96
2017-09-25T02:43:10.157Z,69.62
2017-09-25T02:44:10.174Z,68.67
2017-09-25T02:45:10.513Z,68.76
2017-09-25T02:46:10.211Z,69.62
2017-09-25T02:47:10.501Z,69.15
2017-09-25T02:48:10.567Z,69.05
2017-09-25T02:49:10.587Z,69.62
2017-09-25T02:50:10.607Z,69.62
2017-09-25T02:51:10.296Z,69.72
2017-09-25T02:52:10.640Z,68.76
2017-09-25T02:53:10.658Z,69.05
2017-09-25T02:54:10.673Z,69.53
2017-09-25T02:55:10.372Z,68.67
2017-09-25T02:56:10.394Z,68.96
2017-09-25T02:57:10.728Z,68.76
2017-09-25T02:58:10.744Z,68.86
2017-09-25T02:59:10.437Z,69.62
2017-09-25T03:00:10.457Z,69.53
2017-09-25T03:01:10.799Z,69.53
2017-09-25T03:02:10.819Z,69.62
2017-09-25T03:03:10.839Z,69.24
2017-09-25T03:04:10.530Z,69.43
2017-09-25T03:05:10.871Z,69.43
2017-09-25T03:06:10.567Z,69.43
2017-09-25T03:07:10.905Z,69.24
2017-09-25T03:08:10.926Z,69.15
2017-09-25T03:09:10.947Z,69.43
2017-09-25T03:10:10.961Z,68.76
2017-09-25T03:11:10.984Z,69.43
2017-09-25T03:12:10.994Z,69.82
2017-09-25T03:13:11.014Z,69.62
2017-09-25T03:14:10.715Z,69.34
2017-09-25T03:15:10.724Z,69.24
2017-09-25T03:16:11.070Z,69.24
2017-09-25T03:17:11.086Z,69.43
2017-09-25T03:18:10.779Z,69.43
2017-09-25T03:19:11.120Z,69.43
2017-09-25T03:20:11.211Z,69.24
2017-09-25T03:21:10.833Z,69.24
2017-09-25T03:22:10.850Z,69.34
2017-09-25T03:23:11.196Z,69.37
2017-09-25T03:24:10.889Z,69.24
2017-09-25T03:25:11.227Z,69.43
2017-09-25T03:26:11.247Z,69.34
2017-09-25T03:27:11.039Z,69.15
2017-09-25T03:28:10.956Z,69.15
2017-09-25T03:29:11.298Z,69.27
2017-09-25T03:30:11.322Z,70.01
2017-09-25T03:31:11.334Z,69.24
2017-09-25T03:32:11.027Z,69.24
2017-09-25T03:33:11.369Z,69.15
2017-09-25T03:34:11.391Z,69.15
2017-09-25T03:35:11.406Z,69.15
2017-09-25T03:36:11.425Z,69.15
2017-09-25T03:37:11.445Z,69.53
2017-09-25T03:38:11.138Z,69.18
2017-09-25T03:39:11.475Z,69.18
2017-09-25T03:40:11.172Z,69.15
2017-09-25T03:41:11.510Z,69.34
2017-09-25T03:42:11.280Z,69.27
2017-09-25T03:43:11.289Z,69.37
2017-09-25T03:44:11.365Z,69.24
2017-09-25T03:45:11.497Z,69.18
2017-09-25T03:46:11.602Z,69.24
2017-09-25T03:47:11.626Z,69.24
2017-09-25T03:48:11.642Z,69.27
2017-09-25T03:49:11.804Z,70.04
2017-09-25T03:50:11.351Z,69.85
2017-09-25T03:51:11.689Z,69.85
2017-09-25T03:52:11.709Z,69.53
2017-09-25T03:53:11.729Z,69.53
2017-09-25T03:54:11.743Z,69.53
2017-09-25T03:55:11.440Z,69.53
2017-09-25T03:56:11.782Z,69.47
2017-09-25T03:57:11.798Z,69.53
2017-09-25T03:58:11.820Z,69.53
2017-09-25T03:59:11.839Z,69.47
2017-09-25T04:00:11.855Z,69.76
2017-09-25T04:01:11.546Z,69.37
2017-09-25T04:02:11.891Z,69.37
2017-09-25T04:03:12.038Z,69.15
2017-09-25T04:04:11.601Z,69.82
2017-09-25T04:05:11.620Z,69.66
2017-09-25T04:06:12.085Z,69.85
2017-09-25T04:07:11.708Z,69.76
2017-09-25T04:08:11.671Z,69.82
2017-09-25T04:09:12.013Z,69.95
2017-09-25T04:10:11.717Z,69.56
2017-09-25T04:11:11.724Z,69.66
2017-09-25T04:12:11.742Z,69.66
2017-09-25T04:13:12.088Z,69.47
2017-09-25T04:14:11.779Z,69.47
2017-09-25T04:15:11.798Z,69.56
2017-09-25T04:16:11.832Z,69.85
2017-09-25T04:17:12.157Z,69.82
2017-09-25T04:18:12.173Z,69.56
2017-09-25T04:19:11.868Z,69.56
2017-09-25T04:20:11.884Z,69.76
2017-09-25T04:21:12.229Z,70.14
2017-09-25T04:22:11.921Z,69.66
2017-09-25T04:23:12.357Z,69.56
2017-09-25T04:24:11.957Z,69.53
2017-09-25T04:25:11.973Z,69.27
2017-09-25T04:26:12.599Z,69.56
2017-09-25T04:27:12.358Z,69.56
2017-09-25T04:28:12.351Z,69.56
2017-09-25T04:29:12.371Z,69.56
2017-09-25T04:30:12.072Z,69.76
2017-09-25T04:31:12.407Z,69.66
2017-09-25T04:32:12.210Z,69.56
2017-09-25T04:33:12.451Z,69.66
2017-09-25T04:34:12.580Z,69.56
2017-09-25T04:35:12.477Z,69.56
2017-09-25T04:36:12.495Z,69.85
2017-09-25T04:37:12.217Z,69.95
2017-09-25T04:38:12.531Z,69.27
2017-09-25T04:39:12.549Z,69.56
2017-09-25T04:40:12.244Z,69.56
2017-09-25T04:41:12.264Z,69.47
2017-09-25T04:42:12.277Z,69.76
2017-09-25T04:43:12.298Z,69.37
2017-09-25T04:44:12.770Z,70.23
2017-09-25T04:45:12.336Z,70.33
2017-09-25T04:46:12.674Z,69.47
2017-09-25T04:47:12.376Z,69.56
2017-09-25T04:48:12.715Z,70.42
2017-09-25T04:49:12.405Z,69.95
2017-09-25T04:50:12.743Z,70.04
2017-09-25T04:51:12.767Z,69.95
2017-09-25T04:52:12.777Z,70.81
2017-09-25T04:53:12.802Z,70.61
2017-09-25T04:54:12.495Z,70.61
2017-09-25T04:55:12.833Z,69.95
2017-09-25T04:56:12.527Z,70.23
2017-09-25T04:57:12.870Z,70.33
2017-09-25T04:58:12.890Z,70.23
2017-09-25T04:59:12.905Z,70.42
2017-09-25T05:00:12.927Z,70.61
2017-09-25T05:01:12.948Z,71.09
2017-09-25T05:02:12.960Z,70.14
2017-09-25T05:03:12.653Z,70.14
2017-09-25T05:04:12.997Z,70.52
2017-09-25T05:05:13.016Z,70.81
2017-09-25T05:06:13.141Z,70.42
2017-09-25T05:07:12.724Z,70.33
2017-09-25T05:08:12.746Z,70.23
2017-09-25T05:09:13.086Z,70.23
2017-09-25T05:10:13.176Z,70.42
2017-09-25T05:11:13.172Z,70.23
2017-09-25T05:12:13.171Z,70.42
2017-09-25T05:13:13.158Z,71
2017-09-25T05:14:13.304Z,70.61
2017-09-25T05:15:13.310Z,71
2017-09-25T05:16:13.217Z,70.9
2017-09-25T05:17:13.229Z,70.33
2017-09-25T05:18:13.244Z,71.09
2017-09-25T05:19:13.335Z,71.09
2017-09-25T05:20:12.958Z,70.71
2017-09-25T05:21:13.427Z,70.52
2017-09-25T05:22:13.320Z,70.9
2017-09-25T05:23:13.335Z,70.61
2017-09-25T05:24:13.351Z,70.71
2017-09-25T05:25:13.370Z,70.52
2017-09-25T05:26:13.063Z,70.81
2017-09-25T05:27:13.082Z,70.61
2017-09-25T05:28:13.217Z,70.52
2017-09-25T05:29:13.181Z,70.71
2017-09-25T05:30:13.481Z,70.81
2017-09-25T05:31:13.479Z,70.61
2017-09-25T05:32:13.494Z,70.71
2017-09-25T05:33:13.557Z,70.81
2017-09-25T05:34:13.565Z,70.61
2017-09-25T05:35:13.549Z,71
2017-09-25T05:36:13.568Z,70.81
2017-09-25T05:37:13.262Z,70.71
2017-09-25T05:38:13.280Z,70.71
2017-09-25T05:39:13.301Z,70.81
2017-09-25T05:40:13.641Z,70.9
2017-09-25T05:41:13.340Z,70.52
2017-09-25T05:42:13.672Z,70.61
2017-09-25T05:43:13.369Z,70.33
2017-09-25T05:44:13.711Z,70.9
2017-09-25T05:45:13.731Z,70.52
2017-09-25T05:46:13.426Z,70.52
2017-09-25T05:47:13.490Z,70.61
2017-09-25T05:48:13.459Z,70.52
2017-09-25T05:49:13.803Z,70.81
2017-09-25T05:50:13.820Z,70.81
2017-09-25T05:51:13.515Z,70.81
2017-09-25T05:52:13.531Z,71
2017-09-25T05:53:13.550Z,70.71
2017-09-25T05:54:13.891Z,70.81
2017-09-25T05:55:13.604Z,70.61
2017-09-25T05:56:13.606Z,70.81
2017-09-25T05:57:13.946Z,70.61
2017-09-25T05:58:13.642Z,70.81
2017-09-25T05:59:13.985Z,71
2017-09-25T06:00:13.675Z,71
2017-09-25T06:01:14.017Z,70.9
2017-09-25T06:02:13.709Z,70.61
2017-09-25T06:03:13.729Z,70.52
2017-09-25T06:04:13.747Z,71
2017-09-25T06:05:14.088Z,70.52
2017-09-25T06:06:14.109Z,70.52
2017-09-25T06:07:13.801Z,70.52
2017-09-25T06:08:13.818Z,70.52
2017-09-25T06:09:13.837Z,70.52
2017-09-25T06:10:13.856Z,71.19
2017-09-25T06:11:14.198Z,71
2017-09-25T06:12:13.893Z,70.71
2017-09-25T06:13:13.909Z,71
2017-09-25T06:14:13.931Z,70.61
2017-09-25T06:15:14.272Z,71
2017-09-25T06:16:13.981Z,70.71
2017-09-25T06:17:13.981Z,70.52
2017-09-25T06:18:14.419Z,71.09
2017-09-25T06:19:14.019Z,70.81
2017-09-25T06:20:14.363Z,70.52
2017-09-25T06:21:14.378Z,70.71
2017-09-25T06:22:14.394Z,70.52
2017-09-25T06:23:14.413Z,70.52
2017-09-25T06:24:14.428Z,71
2017-09-25T06:25:14.125Z,71
2017-09-25T06:26:14.464Z,71
2017-09-25T06:27:14.490Z,70.61
2017-09-25T06:28:14.178Z,70.71
2017-09-25T06:29:14.197Z,71.22
2017-09-25T06:30:14.217Z,70.65
2017-09-25T06:31:14.556Z,71.22
2017-09-25T06:32:14.580Z,70.84
2017-09-25T06:33:14.595Z,70.75
2017-09-25T06:34:14.611Z,70.94
2017-09-25T06:35:14.632Z,70.61
2017-09-25T06:36:14.324Z,70.84
2017-09-25T06:37:14.666Z,70.84
2017-09-25T06:38:14.688Z,70.75
2017-09-25T06:39:14.803Z,71.03
2017-09-25T06:40:14.718Z,70.75
2017-09-25T06:41:14.418Z,71.03
2017-09-25T06:42:14.554Z,71.03
2017-09-25T06:43:14.638Z,70.65
2017-09-25T06:44:14.876Z,71.03
2017-09-25T06:45:14.927Z,70.46
2017-09-25T06:46:14.565Z,70.75
2017-09-25T06:47:14.537Z,70.75
2017-09-25T06:48:14.862Z,71.03
2017-09-25T06:49:14.996Z,70.56
2017-09-25T06:50:14.899Z,70.84
2017-09-25T06:51:14.598Z,70.94
2017-09-25T06:52:14.615Z,71.03
2017-09-25T06:53:14.634Z,71.03
2017-09-25T06:54:14.974Z,71.32
2017-09-25T06:55:14.667Z,70.84
2017-09-25T06:56:15.014Z,70.84
2017-09-25T06:57:14.703Z,70.84
2017-09-25T06:58:15.045Z,70.94
2017-09-25T06:59:15.065Z,71.03
2017-09-25T07:00:15.085Z,71.03
2017-09-25T07:01:15.101Z,71.13
2017-09-25T07:02:15.125Z,70.94
2017-09-25T07:03:15.239Z,71.61
2017-09-25T07:04:15.160Z,71.42
2017-09-25T07:05:15.174Z,71.61
2017-09-25T07:06:14.866Z,71.8
2017-09-25T07:07:15.209Z,71.51
2017-09-25T07:08:14.908Z,71.51
2017-09-25T07:09:14.926Z,71.61
2017-09-25T07:10:14.944Z,71.42
2017-09-25T07:11:14.959Z,71.42
2017-09-25T07:12:14.981Z,71.42
2017-09-25T07:13:15.324Z,71.51
2017-09-25T07:14:15.022Z,71.42
2017-09-25T07:15:15.034Z,71.61
2017-09-25T07:16:15.172Z,71.51
2017-09-25T07:17:15.315Z,71.51
2017-09-25T07:18:15.322Z,71.32
2017-09-25T07:19:15.430Z,71.51
2017-09-25T07:20:15.158Z,71.61
2017-09-25T07:21:15.511Z,71.42
2017-09-25T07:22:15.567Z,71.32
2017-09-25T07:23:15.395Z,71.51
2017-09-25T07:24:15.720Z,71.32
2017-09-25T07:25:15.218Z,71.61
2017-09-25T07:26:15.560Z,71.61
2017-09-25T07:27:15.577Z,71.32
2017-09-25T07:28:15.597Z,70.94
2017-09-25T07:29:15.619Z,71.13
2017-09-25T07:30:15.307Z,71.03
2017-09-25T07:31:15.325Z,71.03
2017-09-25T07:32:15.343Z,70.94
2017-09-25T07:33:15.361Z,71.61
2017-09-25T07:34:15.707Z,71.42
2017-09-25T07:35:15.725Z,71.61
2017-09-25T07:36:15.417Z,71.61
2017-09-25T07:37:15.436Z,71.61
2017-09-25T07:38:15.456Z,71.51
2017-09-25T07:39:15.472Z,71.51
2017-09-25T07:40:15.503Z,71.61
2017-09-25T07:41:15.513Z,71.61
2017-09-25T07:42:15.853Z,70.94
2017-09-25T07:43:15.548Z,71.13
2017-09-25T07:44:15.886Z,70.87
2017-09-25T07:45:15.907Z,70.84
2017-09-25T07:46:15.922Z,70.94
2017-09-25T07:47:15.959Z,71.13
2017-09-25T07:48:15.962Z,71.22
2017-09-25T07:49:15.982Z,71.03
2017-09-25T07:50:15.676Z,71.26
2017-09-25T07:51:16.016Z,71.07
2017-09-25T07:52:15.710Z,70.78
2017-09-25T07:53:15.729Z,70.97
2017-09-25T07:54:16.071Z,70.87
2017-09-25T07:55:16.095Z,70.78
2017-09-25T07:56:16.106Z,70.59
2017-09-25T07:57:16.124Z,70.68
2017-09-25T07:58:15.846Z,70.87
2017-09-25T07:59:15.839Z,70.97
2017-09-25T08:00:15.859Z,70.97
2017-09-25T08:01:16.200Z,70.78
2017-09-25T08:02:16.239Z,70.78
2017-09-25T08:03:16.237Z,71.07
2017-09-25T08:04:16.255Z,70.68
2017-09-25T08:05:16.273Z,71.07
2017-09-25T08:06:16.292Z,70.97
2017-09-25T08:07:16.310Z,70.21
2017-09-25T08:08:16.331Z,70.3
2017-09-25T08:09:16.235Z,70.3
2017-09-25T08:10:16.542Z,70.3
2017-09-25T08:11:16.066Z,70.5
2017-09-25T08:12:16.107Z,70.3
2017-09-25T08:13:16.099Z,70.3
2017-09-25T08:14:16.441Z,70.3
2017-09-25T08:15:16.468Z,70.68
2017-09-25T08:16:16.479Z,70.5
2017-09-25T08:17:16.499Z,70.68
2017-09-25T08:18:16.516Z,70.3
2017-09-25T08:19:16.209Z,70.78
2017-09-25T08:20:16.551Z,70.68
2017-09-25T08:21:16.574Z,70.59
2017-09-25T08:22:16.590Z,70.01
2017-09-25T08:23:16.612Z,70.78
2017-09-25T08:24:16.627Z,70.78
2017-09-25T08:25:16.648Z,70.68
2017-09-25T08:26:16.671Z,70.62
2017-09-25T08:27:16.685Z,70.5
2017-09-25T08:28:16.699Z,70.53
2017-09-25T08:29:16.396Z,70.68
2017-09-25T08:30:16.753Z,70.24
2017-09-25T08:31:16.434Z,70.43
2017-09-25T08:32:16.777Z,70.59
2017-09-25T08:33:16.793Z,70.53
2017-09-25T08:34:16.488Z,70.68
2017-09-25T08:35:16.830Z,70.34
2017-09-25T08:36:16.529Z,70.81
2017-09-25T08:37:16.870Z,70.81
2017-09-25T08:38:16.895Z,70.62
2017-09-25T08:39:16.906Z,70.72
2017-09-25T08:40:16.929Z,70.53
2017-09-25T08:41:16.948Z,70.81
2017-09-25T08:42:16.638Z,70.72
2017-09-25T08:43:16.661Z,70.34
2017-09-25T08:44:16.687Z,70.81
2017-09-25T08:45:16.697Z,70.34
2017-09-25T08:46:17.075Z,70.53
2017-09-25T08:47:16.733Z,70.62
2017-09-25T08:48:17.076Z,70.72
2017-09-25T08:49:16.775Z,70.43
2017-09-25T08:50:17.116Z,70.34
2017-09-25T08:51:16.812Z,70.43
2017-09-25T08:52:16.830Z,70.43
2017-09-25T08:53:17.171Z,70.72
2017-09-25T08:54:16.864Z,70.62
2017-09-25T08:55:16.886Z,70.62
2017-09-25T08:56:17.228Z,70.62
2017-09-25T08:57:17.247Z,70.91
2017-09-25T08:58:17.272Z,70.81
2017-09-25T08:59:17.283Z,70.91
2017-09-25T09:00:16.979Z,70.91
2017-09-25T09:01:16.999Z,70.91
2017-09-25T09:02:17.340Z,70.91
2017-09-25T09:03:17.359Z,71.01
2017-09-25T09:04:17.381Z,70.72
2017-09-25T09:05:17.077Z,70.72
2017-09-25T09:06:17.418Z,71.01
2017-09-25T09:07:17.432Z,71.11
2017-09-25T09:08:17.457Z,70.62
2017-09-25T09:09:17.475Z,71.01
2017-09-25T09:10:17.168Z,71.11
2017-09-25T09:11:17.190Z,70.81
2017-09-25T09:12:17.532Z,70.91
2017-09-25T09:13:17.549Z,71.48
2017-09-25T09:14:17.570Z,71.3
2017-09-25T09:15:17.261Z,71.01
2017-09-25T09:16:17.280Z,70.91
2017-09-25T09:17:17.623Z,71.01
2017-09-25T09:18:17.645Z,71.3
2017-09-25T09:19:17.659Z,70.81
2017-09-25T09:20:17.356Z,71.01
2017-09-25T09:21:17.701Z,70.91
2017-09-25T09:22:17.719Z,71.3
2017-09-25T09:23:17.414Z,71.11
2017-09-25T09:24:17.754Z,71.39
2017-09-25T09:25:17.797Z,71.01
2017-09-25T09:26:17.470Z,71.01
2017-09-25T09:27:17.494Z,71.68
2017-09-25T09:28:17.832Z,71.39
2017-09-25T09:29:17.852Z,71.68
2017-09-25T09:30:17.546Z,71.48
2017-09-25T09:31:17.893Z,71.39
2017-09-25T09:32:17.582Z,71.58
2017-09-25T09:33:17.930Z,71.68
2017-09-25T09:34:17.949Z,71.58
2017-09-25T09:35:17.641Z,71.58
2017-09-25T09:36:18.067Z,71.58
2017-09-25T09:37:17.679Z,71.68
2017-09-25T09:38:18.065Z,71.68
2017-09-25T09:39:17.718Z,71.68
2017-09-25T09:40:18.063Z,71.39
2017-09-25T09:41:17.872Z,71.48
2017-09-25T09:42:17.772Z,71.39
2017-09-25T09:43:17.793Z,71.2
2017-09-25T09:44:18.137Z,71.87
2017-09-25T09:45:18.176Z,71.3
2017-09-25T09:46:18.174Z,71.01
2017-09-25T09:47:18.193Z,71.11
2017-09-25T09:48:18.211Z,70.91
2017-09-25T09:49:17.905Z,71.77
2017-09-25T09:50:18.246Z,71.01
2017-09-25T09:51:18.275Z,70.81
2017-09-25T09:52:18.286Z,71.07
2017-09-25T09:53:18.309Z,71.26
2017-09-25T09:54:18.323Z,71.16
2017-09-25T09:55:18.027Z,70.87
2017-09-25T09:56:18.038Z,71.07
2017-09-25T09:57:18.382Z,71.45
2017-09-25T09:58:18.404Z,70.78
2017-09-25T09:59:18.418Z,70.87
2017-09-25T10:00:18.116Z,71.16
2017-09-25T10:01:18.467Z,71.07
2017-09-25T10:02:18.480Z,71.07
2017-09-25T10:03:18.496Z,70.87
2017-09-25T10:04:18.512Z,71.73
2017-09-25T10:05:18.536Z,71.36
2017-09-25T10:06:18.227Z,71.45
2017-09-25T10:07:18.568Z,71.55
2017-09-25T10:08:18.591Z,71.64
2017-09-25T10:09:18.606Z,71.64
2017-09-25T10:10:18.629Z,71.55
2017-09-25T10:11:18.324Z,71.64
2017-09-25T10:12:18.347Z,71.64
2017-09-25T10:13:18.390Z,71.55
2017-09-25T10:14:18.702Z,71.55
2017-09-25T10:15:18.721Z,71.73
2017-09-25T10:16:18.422Z,71.73
2017-09-25T10:17:18.764Z,71.16
2017-09-25T10:18:18.782Z,71.64
2017-09-25T10:19:18.474Z,71.55
2017-09-25T10:20:18.816Z,71.55
2017-09-25T10:21:18.834Z,71.64
2017-09-25T10:22:18.533Z,71.45
2017-09-25T10:23:18.554Z,71.45
2017-09-25T10:24:18.569Z,71.55
2017-09-25T10:25:18.908Z,71.55
2017-09-25T10:26:18.929Z,71.55
2017-09-25T10:27:18.625Z,71.64
2017-09-25T10:28:18.970Z,71.64
2017-09-25T10:29:18.985Z,71.55
2017-09-25T10:30:19.024Z,71.55
2017-09-25T10:31:19.029Z,71.64
2017-09-25T10:32:19.046Z,71.64
2017-09-25T10:33:18.741Z,71.55
2017-09-25T10:34:19.082Z,71.73
2017-09-25T10:35:19.102Z,71.55
2017-09-25T10:36:19.120Z,71.45
2017-09-25T10:37:18.813Z,71.16
2017-09-25T10:38:19.156Z,70.78
2017-09-25T10:39:18.851Z,70.87
2017-09-25T10:40:19.199Z,71.83
2017-09-25T10:41:18.889Z,71.55
2017-09-25T10:42:18.915Z,70.87
2017-09-25T10:43:19.256Z,70.78
2017-09-25T10:44:19.268Z,71.16
2017-09-25T10:45:19.291Z,71.07
2017-09-25T10:46:18.987Z,71.36
2017-09-25T10:47:19.003Z,71.55
2017-09-25T10:48:19.348Z,71.07
2017-09-25T10:49:19.368Z,71.48
2017-09-25T10:50:19.058Z,71.45
2017-09-25T10:51:19.085Z,71.2
2017-09-25T10:52:19.421Z,71.01
2017-09-25T10:53:19.439Z,70.91
2017-09-25T10:54:19.462Z,71.2
2017-09-25T10:55:19.476Z,71.11
2017-09-25T10:56:19.498Z,71.2
2017-09-25T10:57:19.192Z,70.91
2017-09-25T10:58:19.540Z,71.11
2017-09-25T10:59:19.232Z,71.3
2017-09-25T11:00:19.252Z,70.91
2017-09-25T11:01:19.590Z,70.72
2017-09-25T11:02:19.618Z,70.62
2017-09-25T11:03:19.629Z,70.72
2017-09-25T11:04:19.648Z,70.81
2017-09-25T11:05:19.344Z,70.72
2017-09-25T11:06:19.687Z,70.62
2017-09-25T11:07:19.707Z,71.11
2017-09-25T11:08:19.730Z,71.11
2017-09-25T11:09:19.422Z,70.53
2017-09-25T11:10:19.768Z,70.53
2017-09-25T11:11:19.781Z,70.15
2017-09-25T11:12:19.799Z,69.76
2017-09-25T11:13:19.509Z,69.95
2017-09-25T11:14:19.515Z,70.34
2017-09-25T11:15:19.862Z,70.47
2017-09-25T11:16:19.881Z,69.99
2017-09-25T11:17:19.898Z,69.7
2017-09-25T11:18:19.595Z,70.56
2017-09-25T11:19:19.684Z,69.8
2017-09-25T11:20:19.955Z,69.89
2017-09-25T11:21:19.648Z,69.8
2017-09-25T11:22:19.994Z,69.7
2017-09-25T11:23:20.017Z,69.7
2017-09-25T11:24:19.706Z,69.99
2017-09-25T11:25:19.726Z,69.51
2017-09-25T11:26:19.746Z,69.42
2017-09-25T11:27:19.769Z,69.6
2017-09-25T11:28:20.111Z,69.99
2017-09-25T11:29:19.806Z,69.8
2017-09-25T11:30:19.823Z,68.74
2017-09-25T11:31:19.844Z,68.87
2017-09-25T11:32:20.186Z,69.07
2017-09-25T11:33:19.880Z,68.78
2017-09-25T11:34:19.900Z,68.97
2017-09-25T11:35:19.922Z,69.07
2017-09-25T11:36:19.937Z,69.45
2017-09-25T11:37:19.959Z,68.87
2017-09-25T11:38:19.976Z,69.45
2017-09-25T11:39:19.996Z,68.4
2017-09-25T11:40:20.016Z,68.78
2017-09-25T11:41:20.037Z,68.72
2017-09-25T11:42:20.057Z,68.43
2017-09-25T11:43:20.401Z,68.52
2017-09-25T11:44:20.094Z,68.24
2017-09-25T11:45:20.444Z,68.33
2017-09-25T11:46:20.132Z,68.14
2017-09-25T11:47:20.476Z,68.43
2017-09-25T11:48:20.496Z,68.24
2017-09-25T11:49:20.191Z,67.85
2017-09-25T11:50:20.537Z,67.66
2017-09-25T11:51:20.557Z,68.24
2017-09-25T11:52:20.573Z,68.05
2017-09-25T11:53:20.272Z,68.72
2017-09-25T11:54:20.294Z,67.85
2017-09-25T11:55:20.638Z,68.24
2017-09-25T11:56:20.659Z,67.95
2017-09-25T11:57:20.348Z,68.91
2017-09-25T11:58:20.702Z,68.52
2017-09-25T11:59:20.389Z,68.05
2017-09-25T12:00:20.408Z,68.72
2017-09-25T12:01:20.435Z,68.24
2017-09-25T12:02:20.451Z,67.85
2017-09-25T12:03:20.471Z,68.24
2017-09-25T12:04:20.897Z,68.05
2017-09-25T12:05:20.837Z,68.14
2017-09-25T12:06:20.528Z,67.85
2017-09-25T12:07:20.869Z,67.57
2017-09-25T12:08:20.927Z,67.66
2017-09-25T12:09:20.909Z,67.76
2017-09-25T12:10:20.932Z,67.57
2017-09-25T12:11:20.949Z,67.6
2017-09-25T12:12:20.972Z,68.33
2017-09-25T12:13:20.990Z,67.6
2017-09-25T12:14:20.686Z,67.6
2017-09-25T12:15:20.705Z,67.69
2017-09-25T12:16:20.726Z,67.12
2017-09-25T12:17:21.069Z,67.12
2017-09-25T12:18:20.767Z,67.69
2017-09-25T12:19:21.111Z,67.5
2017-09-25T12:20:21.133Z,67.02
2017-09-25T12:21:21.152Z,67.69
2017-09-25T12:22:20.847Z,67.79
2017-09-25T12:23:20.865Z,67.41
2017-09-25T12:24:21.210Z,67.6
2017-09-25T12:25:20.903Z,67.22
2017-09-25T12:26:20.926Z,67.6
2017-09-25T12:27:20.945Z,67.41
2017-09-25T12:28:21.294Z,67.41
2017-09-25T12:29:20.985Z,67.22
2017-09-25T12:30:21.007Z,67.54
2017-09-25T12:31:21.028Z,67.83
2017-09-25T12:32:21.367Z,67.35
2017-09-25T12:33:21.065Z,67.16
2017-09-25T12:34:21.084Z,67.25
2017-09-25T12:35:21.108Z,67.06
2017-09-25T12:36:21.122Z,67.25
2017-09-25T12:37:21.476Z,67.63
2017-09-25T12:38:21.491Z,67.25
2017-09-25T12:39:21.189Z,67.25
2017-09-25T12:40:21.209Z,67.25
2017-09-25T12:41:21.640Z,67.06
2017-09-25T12:42:21.245Z,67.06
2017-09-25T12:43:21.638Z,67.16
2017-09-25T12:44:21.314Z,66.86
2017-09-25T12:45:21.768Z,66.96
2017-09-25T12:46:21.651Z,66.67
2017-09-25T12:47:21.676Z,66.77
2017-09-25T12:48:21.723Z,66.86
2017-09-25T12:49:21.711Z,67
2017-09-25T12:50:21.952Z,66.67
2017-09-25T12:51:21.747Z,66.29
2017-09-25T12:52:21.772Z,66.13
2017-09-25T12:53:21.466Z,66.03
2017-09-25T12:54:21.485Z,65.94
2017-09-25T12:55:21.830Z,66.23